sensor_id;sensor_type;location;lat;lon;timestamp;pressure;altitude;pressure_sealevel;temperature;humidity
56568;BME280;42456;49.956;20.004;2023-02-21T00:00:30;97629.95;;;9.40;64.58
56568;BME280;42456;49.956;20.004;2023-02-21T00:03:10;97633.41;;;9.39;64.70
56568;BME280;42456;49.956;20.004;2023-02-21T00:05:51;97635.44;;;9.37;64.90
56568;BME280;42456;49.956;20.004;2023-02-21T00:08:32;97638.52;;;9.35;64.81
56568;BME280;42456;49.956;20.004;2023-02-21T00:11:12;97632.42;;;9.34;64.83
56568;BME280;42456;49.956;20.004;2023-02-21T00:13:54;97632.45;;;9.33;65.05
56568;BME280;42456;49.956;20.004;2023-02-21T00:16:35;97637.11;;;9.32;64.89
56568;BME280;42456;49.956;20.004;2023-02-21T00:19:16;97629.27;;;9.31;65.02
56568;BME280;42456;49.956;20.004;2023-02-21T00:21:56;97635.45;;;9.31;65.04
56568;BME280;42456;49.956;20.004;2023-02-21T00:24:39;97639.98;;;9.31;65.15
56568;BME280;42456;49.956;20.004;2023-02-21T00:27:20;97632.39;;;9.30;64.98
56568;BME280;42456;49.956;20.004;2023-02-21T00:30:01;97636.27;;;9.30;65.39
56568;BME280;42456;49.956;20.004;2023-02-21T00:32:42;97626.02;;;9.28;65.35
56568;BME280;42456;49.956;20.004;2023-02-21T00:35:22;97629.07;;;9.27;65.48
56568;BME280;42456;49.956;20.004;2023-02-21T00:38:04;97618.96;;;9.26;65.67
56568;BME280;42456;49.956;20.004;2023-02-21T00:40:44;97618.22;;;9.24;65.47
56568;BME280;42456;49.956;20.004;2023-02-21T00:43:29;97614.39;;;9.22;65.57
56568;BME280;42456;49.956;20.004;2023-02-21T00:46:10;97617.41;;;9.20;65.64
56568;BME280;42456;49.956;20.004;2023-02-21T00:48:51;97618.42;;;9.18;65.49
56568;BME280;42456;49.956;20.004;2023-02-21T00:51:32;97619.76;;;9.17;65.49
56568;BME280;42456;49.956;20.004;2023-02-21T00:54:12;97618.28;;;9.16;65.60
56568;BME280;42456;49.956;20.004;2023-02-21T00:56:54;97616.77;;;9.17;65.82
56568;BME280;42456;49.956;20.004;2023-02-21T00:59:35;97614.33;;;9.17;65.59
56568;BME280;42456;49.956;20.004;2023-02-21T01:02:14;97622.37;;;9.17;65.75
56568;BME280;42456;49.956;20.004;2023-02-21T01:04:55;97616.52;;;9.16;65.78
56568;BME280;42456;49.956;20.004;2023-02-21T01:07:36;97610.06;;;9.16;65.71
56568;BME280;42456;49.956;20.004;2023-02-21T01:10:17;97606.06;;;9.15;65.50
56568;BME280;42456;49.956;20.004;2023-02-21T01:12:58;97603.33;;;9.14;65.68
56568;BME280;42456;49.956;20.004;2023-02-21T01:15:38;97607.95;;;9.11;65.40
56568;BME280;42456;49.956;20.004;2023-02-21T01:18:20;97613.79;;;9.10;65.61
56568;BME280;42456;49.956;20.004;2023-02-21T01:21:01;97611.95;;;9.08;65.71
56568;BME280;42456;49.956;20.004;2023-02-21T01:23:42;97614.82;;;9.06;65.98
56568;BME280;42456;49.956;20.004;2023-02-21T01:26:22;97609.55;;;9.05;66.14
56568;BME280;42456;49.956;20.004;2023-02-21T01:29:03;97608.66;;;9.04;66.05
56568;BME280;42456;49.956;20.004;2023-02-21T01:31:44;97614.81;;;9.02;66.19
56568;BME280;42456;49.956;20.004;2023-02-21T01:34:25;97607.59;;;9.01;66.35
56568;BME280;42456;49.956;20.004;2023-02-21T01:37:04;97603.27;;;9.00;66.45
56568;BME280;42456;49.956;20.004;2023-02-21T01:39:46;97602.02;;;9.00;66.43
56568;BME280;42456;49.956;20.004;2023-02-21T01:42:27;97600.70;;;8.99;66.66
56568;BME280;42456;49.956;20.004;2023-02-21T01:48:02;97599.44;;;9.00;66.68
56568;BME280;42456;49.956;20.004;2023-02-21T01:50:43;97598.89;;;9.00;66.54
56568;BME280;42456;49.956;20.004;2023-02-21T01:53:25;97591.79;;;9.01;66.65
56568;BME280;42456;49.956;20.004;2023-02-21T01:56:06;97583.52;;;9.01;66.55
56568;BME280;42456;49.956;20.004;2023-02-21T01:58:48;97582.23;;;9.01;66.91
56568;BME280;42456;49.956;20.004;2023-02-21T02:04:40;97572.70;;;9.00;66.76
56568;BME280;42456;49.956;20.004;2023-02-21T02:07:21;97566.84;;;8.99;66.81
56568;BME280;42456;49.956;20.004;2023-02-21T02:10:03;97570.59;;;8.99;66.54
56568;BME280;42456;49.956;20.004;2023-02-21T02:15:52;97574.71;;;8.96;66.90
56568;BME280;42456;49.956;20.004;2023-02-21T02:45:45;97564.86;;;8.99;67.56
56568;BME280;42456;49.956;20.004;2023-02-21T02:48:19;97559.91;;;8.98;67.68
56568;BME280;42456;49.956;20.004;2023-02-21T02:50:49;97566.52;;;8.96;67.90
56568;BME280;42456;49.956;20.004;2023-02-21T02:53:21;97564.16;;;8.95;68.01
56568;BME280;42456;49.956;20.004;2023-02-21T02:55:56;97565.19;;;8.93;67.90
56568;BME280;42456;49.956;20.004;2023-02-21T02:58:30;97572.94;;;8.91;68.07
56568;BME280;42456;49.956;20.004;2023-02-21T03:06:53;97573.54;;;8.86;68.97
56568;BME280;42456;49.956;20.004;2023-02-21T03:09:42;97573.83;;;8.83;69.58
56568;BME280;42456;49.956;20.004;2023-02-21T03:15:19;97572.59;;;8.76;70.49
56568;BME280;42456;49.956;20.004;2023-02-21T03:20:40;97574.20;;;8.69;71.00
56568;BME280;42456;49.956;20.004;2023-02-21T03:23:10;97571.63;;;8.66;71.23
56568;BME280;42456;49.956;20.004;2023-02-21T03:25:38;97572.98;;;8.63;71.56
56568;BME280;42456;49.956;20.004;2023-02-21T03:28:06;97578.38;;;8.61;71.67
56568;BME280;42456;49.956;20.004;2023-02-21T03:30:34;97579.30;;;8.59;71.80
56568;BME280;42456;49.956;20.004;2023-02-21T03:33:01;97580.55;;;8.58;71.74
56568;BME280;42456;49.956;20.004;2023-02-21T03:35:29;97579.59;;;8.56;72.18
56568;BME280;42456;49.956;20.004;2023-02-21T03:37:57;97584.45;;;8.56;72.24
56568;BME280;42456;49.956;20.004;2023-02-21T03:40:28;97585.23;;;8.54;72.65
56568;BME280;42456;49.956;20.004;2023-02-21T03:42:58;97578.71;;;8.51;73.16
56568;BME280;42456;49.956;20.004;2023-02-21T03:45:25;97583.81;;;8.48;73.49
56568;BME280;42456;49.956;20.004;2023-02-21T03:47:51;97586.60;;;8.44;74.16
56568;BME280;42456;49.956;20.004;2023-02-21T03:50:18;97590.58;;;8.40;74.40
56568;BME280;42456;49.956;20.004;2023-02-21T03:52:45;97585.79;;;8.36;74.55
56568;BME280;42456;49.956;20.004;2023-02-21T03:55:12;97584.69;;;8.33;75.03
56568;BME280;42456;49.956;20.004;2023-02-21T03:57:39;97590.98;;;8.30;75.18
56568;BME280;42456;49.956;20.004;2023-02-21T04:00:06;97593.88;;;8.27;75.31
56568;BME280;42456;49.956;20.004;2023-02-21T04:02:33;97597.30;;;8.25;75.82
56568;BME280;42456;49.956;20.004;2023-02-21T04:05:00;97598.36;;;8.22;76.05
56568;BME280;42456;49.956;20.004;2023-02-21T04:07:27;97597.33;;;8.20;76.25
56568;BME280;42456;49.956;20.004;2023-02-21T04:09:53;97596.20;;;8.17;76.37
56568;BME280;42456;49.956;20.004;2023-02-21T04:12:20;97595.04;;;8.15;76.81
56568;BME280;42456;49.956;20.004;2023-02-21T04:14:47;97589.83;;;8.13;76.81
56568;BME280;42456;49.956;20.004;2023-02-21T04:17:14;97596.39;;;8.11;76.83
56568;BME280;42456;49.956;20.004;2023-02-21T04:19:42;97589.50;;;8.08;77.13
56568;BME280;42456;49.956;20.004;2023-02-21T04:22:09;97588.27;;;8.06;77.27
56568;BME280;42456;49.956;20.004;2023-02-21T04:24:35;97591.93;;;8.03;77.19
56568;BME280;42456;49.956;20.004;2023-02-21T04:27:02;97595.22;;;8.02;77.60
56568;BME280;42456;49.956;20.004;2023-02-21T04:29:29;97592.41;;;8.00;77.61
56568;BME280;42456;49.956;20.004;2023-02-21T04:31:56;97590.95;;;7.97;77.80
56568;BME280;42456;49.956;20.004;2023-02-21T04:34:23;97593.32;;;7.95;78.32
56568;BME280;42456;49.956;20.004;2023-02-21T04:36:50;97587.89;;;7.93;77.94
56568;BME280;42456;49.956;20.004;2023-02-21T04:39:17;97589.20;;;7.91;78.10
56568;BME280;42456;49.956;20.004;2023-02-21T04:41:43;97588.52;;;7.90;78.32
56568;BME280;42456;49.956;20.004;2023-02-21T04:44:11;97593.05;;;7.88;78.68
56568;BME280;42456;49.956;20.004;2023-02-21T04:46:38;97593.52;;;7.86;78.90
56568;BME280;42456;49.956;20.004;2023-02-21T04:49:05;97590.86;;;7.85;79.08
56568;BME280;42456;49.956;20.004;2023-02-21T04:51:32;97596.77;;;7.83;79.12
56568;BME280;42456;49.956;20.004;2023-02-21T04:53:58;97596.55;;;7.82;79.10
56568;BME280;42456;49.956;20.004;2023-02-21T04:56:25;97592.95;;;7.79;79.17
56568;BME280;42456;49.956;20.004;2023-02-21T04:58:54;97595.25;;;7.78;79.53
56568;BME280;42456;49.956;20.004;2023-02-21T05:01:21;97599.52;;;7.77;79.70
56568;BME280;42456;49.956;20.004;2023-02-21T05:03:48;97606.98;;;7.76;79.89
56568;BME280;42456;49.956;20.004;2023-02-21T05:06:20;97609.43;;;7.74;80.25
56568;BME280;42456;49.956;20.004;2023-02-21T05:08:47;97609.85;;;7.71;80.49
56568;BME280;42456;49.956;20.004;2023-02-21T05:11:14;97612.75;;;7.68;80.70
56568;BME280;42456;49.956;20.004;2023-02-21T05:13:42;97609.80;;;7.65;80.71
56568;BME280;42456;49.956;20.004;2023-02-21T05:16:09;97607.84;;;7.62;81.09
56568;BME280;42456;49.956;20.004;2023-02-21T05:18:36;97613.77;;;7.59;81.51
56568;BME280;42456;49.956;20.004;2023-02-21T05:21:06;97606.94;;;7.56;81.64
56568;BME280;42456;49.956;20.004;2023-02-21T05:23:34;97602.70;;;7.54;81.97
56568;BME280;42456;49.956;20.004;2023-02-21T05:28:30;97599.96;;;7.48;82.23
56568;BME280;42456;49.956;20.004;2023-02-21T05:30:58;97596.14;;;7.46;82.63
56568;BME280;42456;49.956;20.004;2023-02-21T05:33:27;97586.56;;;7.43;82.81
56568;BME280;42456;49.956;20.004;2023-02-21T05:35:54;97586.85;;;7.41;83.11
56568;BME280;42456;49.956;20.004;2023-02-21T05:38:23;97589.55;;;7.39;83.06
56568;BME280;42456;49.956;20.004;2023-02-21T05:40:50;97583.54;;;7.38;83.34
56568;BME280;42456;49.956;20.004;2023-02-21T05:43:17;97579.02;;;7.36;83.34
56568;BME280;42456;49.956;20.004;2023-02-21T05:45:44;97577.46;;;7.35;83.48
56568;BME280;42456;49.956;20.004;2023-02-21T05:48:11;97580.27;;;7.35;83.77
56568;BME280;42456;49.956;20.004;2023-02-21T05:50:38;97578.85;;;7.33;83.83
56568;BME280;42456;49.956;20.004;2023-02-21T05:53:05;97580.58;;;7.33;83.92
56568;BME280;42456;49.956;20.004;2023-02-21T05:55:32;97584.88;;;7.31;83.93
56568;BME280;42456;49.956;20.004;2023-02-21T05:57:59;97583.23;;;7.31;84.37
56568;BME280;42456;49.956;20.004;2023-02-21T06:00:28;97583.77;;;7.31;84.38
56568;BME280;42456;49.956;20.004;2023-02-21T06:02:55;97586.89;;;7.30;84.53
56568;BME280;42456;49.956;20.004;2023-02-21T06:05:22;97586.14;;;7.30;84.48
56568;BME280;42456;49.956;20.004;2023-02-21T06:07:50;97600.42;;;7.30;84.47
56568;BME280;42456;49.956;20.004;2023-02-21T06:10:17;97599.85;;;7.31;84.75
56568;BME280;42456;49.956;20.004;2023-02-21T06:12:45;97599.16;;;7.31;84.79
56568;BME280;42456;49.956;20.004;2023-02-21T06:15:12;97595.91;;;7.32;84.76
56568;BME280;42456;49.956;20.004;2023-02-21T06:17:39;97598.23;;;7.35;85.02
56568;BME280;42456;49.956;20.004;2023-02-21T06:20:10;97595.08;;;7.36;85.11
56568;BME280;42456;49.956;20.004;2023-02-21T06:22:38;97593.63;;;7.40;85.27
56568;BME280;42456;49.956;20.004;2023-02-21T06:25:05;97599.43;;;7.44;85.33
56568;BME280;42456;49.956;20.004;2023-02-21T06:27:32;97598.08;;;7.45;85.04
56568;BME280;42456;49.956;20.004;2023-02-21T06:29:58;97596.25;;;7.43;85.01
56568;BME280;42456;49.956;20.004;2023-02-21T06:32:25;97600.35;;;7.42;85.14
56568;BME280;42456;49.956;20.004;2023-02-21T06:34:53;97600.69;;;7.43;85.27
56568;BME280;42456;49.956;20.004;2023-02-21T06:37:20;97608.65;;;7.43;85.39
56568;BME280;42456;49.956;20.004;2023-02-21T06:39:47;97609.77;;;7.45;85.40
56568;BME280;42456;49.956;20.004;2023-02-21T06:42:15;97612.06;;;7.47;85.38
56568;BME280;42456;49.956;20.004;2023-02-21T06:44:43;97614.18;;;7.50;85.42
56568;BME280;42456;49.956;20.004;2023-02-21T06:47:10;97615.71;;;7.52;85.43
56568;BME280;42456;49.956;20.004;2023-02-21T06:49:37;97619.95;;;7.53;85.63
56568;BME280;42456;49.956;20.004;2023-02-21T06:52:04;97619.99;;;7.53;85.41
56568;BME280;42456;49.956;20.004;2023-02-21T06:54:31;97630.02;;;7.54;85.31
56568;BME280;42456;49.956;20.004;2023-02-21T06:56:58;97631.27;;;7.55;85.41
56568;BME280;42456;49.956;20.004;2023-02-21T06:59:28;97637.02;;;7.55;85.61
56568;BME280;42456;49.956;20.004;2023-02-21T07:01:55;97636.46;;;7.56;85.35
56568;BME280;42456;49.956;20.004;2023-02-21T07:04:23;97636.33;;;7.57;85.37
56568;BME280;42456;49.956;20.004;2023-02-21T07:06:50;97645.34;;;7.59;85.38
56568;BME280;42456;49.956;20.004;2023-02-21T07:09:17;97634.02;;;7.59;85.58
56568;BME280;42456;49.956;20.004;2023-02-21T07:11:44;97642.58;;;7.60;85.55
56568;BME280;42456;49.956;20.004;2023-02-21T07:14:13;97641.20;;;7.63;85.49
56568;BME280;42456;49.956;20.004;2023-02-21T07:16:39;97645.88;;;7.67;85.33
56568;BME280;42456;49.956;20.004;2023-02-21T07:19:07;97650.59;;;7.68;85.54
56568;BME280;42456;49.956;20.004;2023-02-21T07:21:34;97648.65;;;7.69;85.74
56568;BME280;42456;49.956;20.004;2023-02-21T07:24:00;97649.63;;;7.71;85.53
56568;BME280;42456;49.956;20.004;2023-02-21T07:26:27;97651.80;;;7.74;85.60
56568;BME280;42456;49.956;20.004;2023-02-21T07:28:54;97653.71;;;7.76;85.44
56568;BME280;42456;49.956;20.004;2023-02-21T07:31:21;97653.10;;;7.78;85.42
56568;BME280;42456;49.956;20.004;2023-02-21T07:33:48;97655.23;;;7.80;85.53
56568;BME280;42456;49.956;20.004;2023-02-21T07:36:15;97663.15;;;7.83;85.67
56568;BME280;42456;49.956;20.004;2023-02-21T07:38:42;97660.20;;;7.86;85.44
56568;BME280;42456;49.956;20.004;2023-02-21T07:41:09;97662.11;;;7.90;85.44
56568;BME280;42456;49.956;20.004;2023-02-21T07:43:36;97660.02;;;7.92;85.14
56568;BME280;42456;49.956;20.004;2023-02-21T07:46:12;97660.09;;;7.93;85.47
56568;BME280;42456;49.956;20.004;2023-02-21T07:48:39;97662.98;;;7.94;85.34
56568;BME280;42456;49.956;20.004;2023-02-21T07:51:07;97660.55;;;7.97;85.18
56568;BME280;42456;49.956;20.004;2023-02-21T07:53:34;97654.04;;;8.01;84.99
56568;BME280;42456;49.956;20.004;2023-02-21T07:56:02;97646.46;;;8.05;84.84
56568;BME280;42456;49.956;20.004;2023-02-21T07:58:29;97645.45;;;8.11;84.58
56568;BME280;42456;49.956;20.004;2023-02-21T08:00:58;97646.30;;;8.13;84.65
56568;BME280;42456;49.956;20.004;2023-02-21T08:03:25;97642.04;;;8.14;84.47
56568;BME280;42456;49.956;20.004;2023-02-21T08:05:51;97641.66;;;8.14;84.06
56568;BME280;42456;49.956;20.004;2023-02-21T08:08:19;97640.70;;;8.15;84.24
56568;BME280;42456;49.956;20.004;2023-02-21T08:10:45;97641.27;;;8.18;84.31
56568;BME280;42456;49.956;20.004;2023-02-21T08:13:12;97646.29;;;8.20;84.22
56568;BME280;42456;49.956;20.004;2023-02-21T08:15:39;97647.06;;;8.19;84.37
56568;BME280;42456;49.956;20.004;2023-02-21T08:18:10;97653.13;;;8.20;84.12
56568;BME280;42456;49.956;20.004;2023-02-21T08:20:44;97669.29;;;8.22;83.98
56568;BME280;42456;49.956;20.004;2023-02-21T08:23:11;97667.22;;;8.23;84.07
56568;BME280;42456;49.956;20.004;2023-02-21T08:25:38;97667.10;;;8.26;83.89
56568;BME280;42456;49.956;20.004;2023-02-21T08:28:05;97674.41;;;8.30;83.96
56568;BME280;42456;49.956;20.004;2023-02-21T08:30:31;97668.61;;;8.34;83.76
56568;BME280;42456;49.956;20.004;2023-02-21T08:32:58;97675.14;;;8.37;83.60
56568;BME280;42456;49.956;20.004;2023-02-21T08:35:25;97678.74;;;8.39;83.54
56568;BME280;42456;49.956;20.004;2023-02-21T08:37:52;97677.30;;;8.42;83.29
56568;BME280;42456;49.956;20.004;2023-02-21T08:40:22;97680.16;;;8.43;83.36
56568;BME280;42456;49.956;20.004;2023-02-21T08:42:52;97694.85;;;8.44;83.00
56568;BME280;42456;49.956;20.004;2023-02-21T08:45:20;97691.70;;;8.48;82.93
56568;BME280;42456;49.956;20.004;2023-02-21T08:47:48;97690.92;;;8.52;82.86
56568;BME280;42456;49.956;20.004;2023-02-21T08:50:18;97697.80;;;8.58;82.91
56568;BME280;42456;49.956;20.004;2023-02-21T08:52:46;97694.73;;;8.67;83.04
56568;BME280;42456;49.956;20.004;2023-02-21T08:55:14;97691.58;;;8.74;82.67
56568;BME280;42456;49.956;20.004;2023-02-21T08:57:41;97686.30;;;8.79;82.14
56568;BME280;42456;49.956;20.004;2023-02-21T09:00:10;97700.83;;;8.80;81.90
56568;BME280;42456;49.956;20.004;2023-02-21T09:02:39;97696.81;;;8.84;81.70
56568;BME280;42456;49.956;20.004;2023-02-21T09:05:08;97695.80;;;8.94;82.08
56568;BME280;42456;49.956;20.004;2023-02-21T09:07:36;97697.79;;;9.01;82.01
56568;BME280;42456;49.956;20.004;2023-02-21T09:10:04;97698.70;;;9.05;81.07
56568;BME280;42456;49.956;20.004;2023-02-21T09:12:36;97700.05;;;9.07;81.20
56568;BME280;42456;49.956;20.004;2023-02-21T09:15:04;97707.56;;;9.11;81.07
56568;BME280;42456;49.956;20.004;2023-02-21T09:17:32;97711.62;;;9.18;80.80
56568;BME280;42456;49.956;20.004;2023-02-21T09:20:01;97705.67;;;9.22;80.91
56568;BME280;42456;49.956;20.004;2023-02-21T09:22:53;97718.09;;;9.26;80.69
56568;BME280;42456;49.956;20.004;2023-02-21T09:25:23;97722.45;;;9.26;80.77
56568;BME280;42456;49.956;20.004;2023-02-21T09:27:51;97725.02;;;9.22;80.68
56568;BME280;42456;49.956;20.004;2023-02-21T09:30:22;97725.00;;;9.24;81.23
56568;BME280;42456;49.956;20.004;2023-02-21T09:32:52;97726.17;;;9.27;81.02
56568;BME280;42456;49.956;20.004;2023-02-21T09:35:21;97728.91;;;9.28;81.19
56568;BME280;42456;49.956;20.004;2023-02-21T09:37:48;97735.40;;;9.25;81.39
56568;BME280;42456;49.956;20.004;2023-02-21T09:40:25;97735.60;;;9.22;81.19
56568;BME280;42456;49.956;20.004;2023-02-21T09:42:57;97742.98;;;9.21;81.32
56568;BME280;42456;49.956;20.004;2023-02-21T09:45:36;97747.27;;;9.23;81.47
56568;BME280;42456;49.956;20.004;2023-02-21T09:48:07;97750.27;;;9.25;81.72
56568;BME280;42456;49.956;20.004;2023-02-21T09:51:14;97742.45;;;9.30;81.81
56568;BME280;42456;49.956;20.004;2023-02-21T09:53:37;97745.85;;;9.42;81.59
56568;BME280;42456;49.956;20.004;2023-02-21T09:58:56;97758.00;;;9.45;81.29
56568;BME280;42456;49.956;20.004;2023-02-21T10:01:43;97755.41;;;9.43;81.36
56568;BME280;42456;49.956;20.004;2023-02-21T10:06:54;97741.13;;;9.52;81.55
56568;BME280;42456;49.956;20.004;2023-02-21T10:12:19;97740.53;;;9.65;81.69
56568;BME280;42456;49.956;20.004;2023-02-21T10:17:54;97755.35;;;9.84;81.45
56568;BME280;42456;49.956;20.004;2023-02-21T10:20:31;97759.63;;;9.91;81.03
56568;BME280;42456;49.956;20.004;2023-02-21T10:23:02;97757.00;;;9.97;80.93
56568;BME280;42456;49.956;20.004;2023-02-21T10:25:32;97757.78;;;10.05;80.38
56568;BME280;42456;49.956;20.004;2023-02-21T10:28:02;97760.98;;;10.05;80.05
56568;BME280;42456;49.956;20.004;2023-02-21T10:30:33;97761.33;;;10.06;79.87
56568;BME280;42456;49.956;20.004;2023-02-21T10:33:07;97766.36;;;10.05;79.73
56568;BME280;42456;49.956;20.004;2023-02-21T10:35:37;97766.31;;;10.10;80.10
56568;BME280;42456;49.956;20.004;2023-02-21T10:38:15;97762.27;;;10.25;80.88
56568;BME280;42456;49.956;20.004;2023-02-21T10:40:43;97751.20;;;10.41;80.70
56568;BME280;42456;49.956;20.004;2023-02-21T10:43:30;97746.92;;;10.49;80.25
56568;BME280;42456;49.956;20.004;2023-02-21T10:46:07;97740.90;;;10.53;79.98
56568;BME280;42456;49.956;20.004;2023-02-21T10:48:37;97756.95;;;10.66;79.97
56568;BME280;42456;49.956;20.004;2023-02-21T10:51:17;97758.63;;;10.79;79.09
56568;BME280;42456;49.956;20.004;2023-02-21T10:54:20;97754.55;;;10.90;78.94
56568;BME280;42456;49.956;20.004;2023-02-21T10:56:49;97761.23;;;10.96;78.37
56568;BME280;42456;49.956;20.004;2023-02-21T10:59:34;97755.53;;;10.98;78.07
56568;BME280;42456;49.956;20.004;2023-02-21T11:02:31;97762.64;;;10.91;77.83
56568;BME280;42456;49.956;20.004;2023-02-21T11:05:27;97761.17;;;10.80;77.79
56568;BME280;42456;49.956;20.004;2023-02-21T11:08:01;97758.77;;;10.71;77.56
56568;BME280;42456;49.956;20.004;2023-02-21T11:10:32;97763.90;;;10.62;77.41
56568;BME280;42456;49.956;20.004;2023-02-21T11:13:02;97761.66;;;10.62;77.55
56568;BME280;42456;49.956;20.004;2023-02-21T11:15:30;97760.27;;;10.60;77.55
56568;BME280;42456;49.956;20.004;2023-02-21T11:18:10;97756.50;;;10.56;77.56
56568;BME280;42456;49.956;20.004;2023-02-21T11:20:37;97761.17;;;10.53;77.76
56568;BME280;42456;49.956;20.004;2023-02-21T11:23:17;97758.95;;;10.51;77.79
56568;BME280;42456;49.956;20.004;2023-02-21T11:25:45;97756.28;;;10.46;77.77
56568;BME280;42456;49.956;20.004;2023-02-21T11:30:48;97758.52;;;10.39;78.10
56568;BME280;42456;49.956;20.004;2023-02-21T11:33:22;97754.80;;;10.32;78.15
56568;BME280;42456;49.956;20.004;2023-02-21T11:35:50;97750.05;;;10.25;78.25
56568;BME280;42456;49.956;20.004;2023-02-21T11:41:03;97755.39;;;10.16;78.44
56568;BME280;42456;49.956;20.004;2023-02-21T11:43:49;97762.35;;;10.18;78.37
56568;BME280;42456;49.956;20.004;2023-02-21T11:46:32;97769.00;;;10.17;78.57
56568;BME280;42456;49.956;20.004;2023-02-21T11:51:46;97780.40;;;10.11;78.63
56568;BME280;42456;49.956;20.004;2023-02-21T11:54:25;97785.59;;;10.10;79.09
56568;BME280;42456;49.956;20.004;2023-02-21T11:59:52;97786.67;;;10.15;78.75
56568;BME280;42456;49.956;20.004;2023-02-21T12:07:53;97777.84;;;10.27;78.88
56568;BME280;42456;49.956;20.004;2023-02-21T12:10:43;97783.07;;;10.35;78.71
56568;BME280;42456;49.956;20.004;2023-02-21T12:16:12;97776.48;;;10.51;78.44
56568;BME280;42456;49.956;20.004;2023-02-21T12:26:50;97798.99;;;10.47;76.71
56568;BME280;42456;49.956;20.004;2023-02-21T12:35:03;97806.55;;;10.27;76.82
56568;BME280;42456;49.956;20.004;2023-02-21T12:37:48;97808.64;;;10.18;77.20
56568;BME280;42456;49.956;20.004;2023-02-21T12:40:55;97818.38;;;10.10;77.66
56568;BME280;42456;49.956;20.004;2023-02-21T12:46:28;97808.66;;;9.93;78.03
56568;BME280;42456;49.956;20.004;2023-02-21T12:52:06;97812.48;;;9.80;77.90
56568;BME280;42456;49.956;20.004;2023-02-21T12:55:02;97799.95;;;9.80;77.95
56568;BME280;42456;49.956;20.004;2023-02-21T13:00:51;97798.34;;;9.89;78.85
56568;BME280;42456;49.956;20.004;2023-02-21T13:11:30;97792.44;;;10.15;79.99
56568;BME280;42456;49.956;20.004;2023-02-21T13:13:59;97789.71;;;10.19;79.82
56568;BME280;42456;49.956;20.004;2023-02-21T13:16:26;97787.38;;;10.21;79.79
56568;BME280;42456;49.956;20.004;2023-02-21T13:19:02;97784.73;;;10.24;79.71
56568;BME280;42456;49.956;20.004;2023-02-21T13:21:38;97783.92;;;10.26;79.51
56568;BME280;42456;49.956;20.004;2023-02-21T13:30:21;97789.30;;;10.23;78.16
56568;BME280;42456;49.956;20.004;2023-02-21T13:32:54;97788.22;;;10.28;78.19
56568;BME280;42456;49.956;20.004;2023-02-21T13:35:34;97785.92;;;10.36;76.84
56568;BME280;42456;49.956;20.004;2023-02-21T13:38:04;97788.52;;;10.43;76.02
56568;BME280;42456;49.956;20.004;2023-02-21T13:40:36;97790.58;;;10.50;75.84
56568;BME280;42456;49.956;20.004;2023-02-21T13:43:21;97793.70;;;10.57;75.31
56568;BME280;42456;49.956;20.004;2023-02-21T13:45:50;97797.21;;;10.61;74.66
56568;BME280;42456;49.956;20.004;2023-02-21T13:48:22;97794.58;;;10.63;74.12
56568;BME280;42456;49.956;20.004;2023-02-21T13:50:52;97800.97;;;10.61;73.27
56568;BME280;42456;49.956;20.004;2023-02-21T13:53:29;97806.59;;;10.58;72.99
56568;BME280;42456;49.956;20.004;2023-02-21T14:01:38;97812.04;;;10.49;72.68
56568;BME280;42456;49.956;20.004;2023-02-21T14:07:00;97819.45;;;10.37;72.75
56568;BME280;42456;49.956;20.004;2023-02-21T14:09:34;97817.86;;;10.36;72.65
56568;BME280;42456;49.956;20.004;2023-02-21T14:12:03;97809.45;;;10.39;73.05
56568;BME280;42456;49.956;20.004;2023-02-21T14:14:34;97803.04;;;10.53;73.43
56568;BME280;42456;49.956;20.004;2023-02-21T14:17:11;97803.65;;;10.66;73.67
56568;BME280;42456;49.956;20.004;2023-02-21T14:19:42;97801.77;;;10.75;73.61
56568;BME280;42456;49.956;20.004;2023-02-21T14:22:15;97800.77;;;10.80;73.63
56568;BME280;42456;49.956;20.004;2023-02-21T14:24:47;97802.42;;;10.84;73.71
56568;BME280;42456;49.956;20.004;2023-02-21T14:29:43;97805.66;;;10.90;73.37
56568;BME280;42456;49.956;20.004;2023-02-21T14:48:49;97830.05;;;10.57;71.05
56568;BME280;42456;49.956;20.004;2023-02-21T15:00:03;97839.70;;;10.31;70.89
56568;BME280;42456;49.956;20.004;2023-02-21T15:02:48;97840.96;;;10.28;71.06
56568;BME280;42456;49.956;20.004;2023-02-21T15:05:36;97842.40;;;10.24;71.06
56568;BME280;42456;49.956;20.004;2023-02-21T15:10:40;97847.54;;;10.14;70.98
56568;BME280;42456;49.956;20.004;2023-02-21T15:15:58;97854.38;;;10.08;70.99
56568;BME280;42456;49.956;20.004;2023-02-21T15:18:32;97852.27;;;10.07;71.34
56568;BME280;42456;49.956;20.004;2023-02-21T15:23:33;97848.55;;;10.04;71.35
56568;BME280;42456;49.956;20.004;2023-02-21T15:28:44;97846.41;;;10.05;71.79
56568;BME280;42456;49.956;20.004;2023-02-21T15:31:12;97848.26;;;10.04;72.19
56568;BME280;42456;49.956;20.004;2023-02-21T15:33:42;97853.27;;;10.05;72.36
56568;BME280;42456;49.956;20.004;2023-02-21T15:36:19;97855.67;;;10.07;72.53
56568;BME280;42456;49.956;20.004;2023-02-21T15:39:14;97859.00;;;10.05;72.69
56568;BME280;42456;49.956;20.004;2023-02-21T15:41:47;97864.56;;;9.96;72.56
56568;BME280;42456;49.956;20.004;2023-02-21T15:44:53;97865.66;;;9.88;72.73
56568;BME280;42456;49.956;20.004;2023-02-21T15:47:20;97867.80;;;9.78;72.86
56568;BME280;42456;49.956;20.004;2023-02-21T15:52:43;97875.67;;;9.66;73.22
56568;BME280;42456;49.956;20.004;2023-02-21T16:00:26;97885.49;;;9.51;73.12
56568;BME280;42456;49.956;20.004;2023-02-21T16:05:49;97891.29;;;9.39;73.29
56568;BME280;42456;49.956;20.004;2023-02-21T16:08:17;97888.28;;;9.32;73.17
56568;BME280;42456;49.956;20.004;2023-02-21T16:10:44;97890.88;;;9.25;73.15
56568;BME280;42456;49.956;20.004;2023-02-21T16:13:11;97895.72;;;9.17;73.41
56568;BME280;42456;49.956;20.004;2023-02-21T16:15:40;97894.83;;;9.08;73.47
56568;BME280;42456;49.956;20.004;2023-02-21T16:18:16;97893.13;;;8.99;73.64
56568;BME280;42456;49.956;20.004;2023-02-21T16:20:44;97897.45;;;8.92;73.74